Airfield :
LOGIN :

Register | Disclaimer

   EN    FR    IT 

 










Legend :    VFR   Marginal VFR   IFR   Intensive IFR   Very Intensive IFR
Visi :
Ceiling :
>= 8 km
>= 3000ft
5 to 8 km
1000 to 3000 ft
1500m to 5 km
500 to 1000 ft
800 to 1500m
200 to 500 ft
< 800m
< 200 ft
Symbols :   Thunderstorms  Fog  Heavy snow  Heavy precipitations  Wind > 20 kt
SIGMETs :     Misc.  Thunderstorms  Icing  Turbulence  Mountain Waves  Volcanic Ashes






- Airport Elevation : 416 ft
- IATA code : OVD


LEAS - Asturias

CURRENT METAR :
  • 220511Z 29013KT 260V330 9999 -RA FEW006 SCT010 BKN016 14/13 Q1017 TEMPO 3000 RA BKN010

EXPIRED METARs :
  • 220442Z 29013KT 260V330 9999 -RA FEW004 BKN012 BKN022 14/14 Q1017 TEMPO 3000 RA BKN010
  • 220430Z 30009KT 260V340 3000 RA FEW004 SCT010 BKN014 14/13 Q1017 NOSIG
  • 220400Z 29013KT 260V330 9999 -DZ FEW008 SCT018 BKN026 14/13 Q1016 TEMPO 3000 RA BKN010
  • 220330Z AUTO 31008KT 260V010 9000 -RA SCT009 BKN017 BKN025 14/14 Q1016
  • 220300Z AUTO 29011KT 250V320 9999 -RA FEW004 BKN013 BKN022 14/14 Q1016
  • 220230Z AUTO 31011KT 270V350 3200 -RA BR BKN009 BKN015 OVC047 14/14 Q1016

TAF TAF LEAS
Valid from the 22 at 03:00 until the 23 at 03:00 UTC


220200Z 2203/2303 30009KT 9999 SCT010 BKN020 TX17/2212Z TN14/2206Z
TEMPO 2203/2210 28019KT
TEMPO 2203/2303 3000 RA SHRA BKN010 SCT030TCU
TEMPO 2203/2208 3000 BR BKN010 BKN014
PROB40
TEMPO 2203/2207 0800 BCFG BKN002 BKN005



MET'MAP, your aeronautical weather chart ! - Copyright ORBIFLY December 2007 - Disclaimer

ORBIFLY MET'MAP TEAM :

Programming & Development : Alexandra Zaïnal
Concept & original design : Baudouin d'Aumeries
Assistance for programming : Marc-Olivier Méhu
Technical & hardware support : Manuel Goepfert

Contact : metmap@orbifly.com




SOURCES & CREDITS :

   NOAA